createdAt,value
2022-11-05T00:01:12.975Z,87.95
2022-11-05T00:04:00.484Z,87.06
2022-11-05T00:06:46.410Z,86.87
2022-11-05T00:09:33.444Z,86.66
2022-11-05T00:12:21.081Z,87.48
2022-11-05T00:15:06.832Z,87.54
2022-11-05T00:17:35.400Z,87.17
2022-11-05T00:20:06.216Z,87.01
2022-11-05T00:22:52.169Z,87.05
2022-11-05T00:25:22.027Z,86.98
2022-11-05T00:27:52.643Z,86.63
2022-11-05T00:30:23.279Z,87.23
2022-11-05T00:32:53.041Z,88.04
2022-11-05T00:35:23.535Z,87.69
2022-11-05T00:37:54.328Z,87.80
2022-11-05T00:40:22.790Z,88.22
2022-11-05T00:43:09.108Z,88.03
2022-11-05T00:45:38.362Z,88.57
2022-11-05T00:48:24.859Z,87.97
2022-11-05T00:50:54.662Z,88.32
2022-11-05T00:53:23.477Z,87.78
2022-11-05T00:55:51.914Z,87.85
2022-11-05T00:58:22.526Z,88.06
2022-11-05T01:00:52.521Z,88.30
2022-11-05T01:03:22.050Z,88.48
2022-11-05T01:05:53.483Z,87.56
2022-11-05T01:08:25.195Z,88.31
2022-11-05T01:10:55.955Z,88.13
2022-11-05T01:13:27.222Z,87.54
2022-11-05T01:15:56.334Z,88.35
2022-11-05T01:18:25.669Z,88.63
2022-11-05T01:20:54.102Z,88.29
2022-11-05T01:23:23.850Z,88.36
2022-11-05T01:25:52.236Z,89.14
2022-11-05T01:28:20.687Z,89.25
2022-11-05T01:30:56.306Z,88.90
2022-11-05T01:33:24.803Z,88.76
2022-11-05T01:35:53.439Z,88.76
2022-11-05T01:38:22.091Z,87.78
2022-11-05T01:40:52.092Z,87.89
2022-11-05T01:43:24.234Z,88.49
2022-11-05T01:45:55.472Z,87.40
2022-11-05T01:48:28.462Z,87.72
2022-11-05T01:51:00.187Z,88.29
2022-11-05T01:53:31.594Z,88.16
2022-11-05T01:56:05.963Z,87.79
2022-11-05T01:58:38.277Z,87.76
2022-11-05T02:01:06.919Z,87.40
2022-11-05T02:03:35.995Z,87.04
2022-11-05T02:06:09.215Z,87.32
2022-11-05T02:08:56.859Z,86.70
2022-11-05T02:11:26.716Z,87.23
2022-11-05T02:13:55.404Z,87.96
2022-11-05T02:16:38.587Z,88.74
2022-11-05T02:19:40.178Z,88.78
2022-11-05T02:22:30.026Z,89.38
2022-11-05T02:25:11.187Z,89.26
2022-11-05T02:28:04.920Z,89.02
2022-11-05T02:30:43.975Z,89.13
2022-11-05T02:33:29.785Z,89.37
2022-11-05T02:36:09.803Z,89.28
2022-11-05T02:38:43.977Z,89.50
2022-11-05T02:41:24.218Z,89.52
2022-11-05T02:44:04.250Z,90.54
2022-11-05T02:46:45.684Z,89.79
2022-11-05T02:49:25.782Z,90.43
2022-11-05T02:51:58.844Z,90.45
2022-11-05T02:54:34.939Z,90.41
2022-11-05T02:57:05.815Z,90.79
2022-11-05T02:59:34.294Z,90.74
2022-11-05T03:02:06.401Z,90.95
2022-11-05T03:04:35.051Z,89.88
2022-11-05T03:07:31.018Z,89.93
2022-11-05T03:10:32.624Z,90.04
2022-11-05T03:13:15.235Z,90.44
2022-11-05T03:15:54.410Z,90.76
2022-11-05T03:18:29.812Z,90.26
2022-11-05T03:21:03.848Z,90.61
2022-11-05T03:23:42.948Z,90.63
2022-11-05T03:26:17.444Z,91.34
2022-11-05T03:28:49.783Z,91.71
2022-11-05T03:31:19.819Z,91.42
2022-11-05T03:33:52.839Z,91.70
2022-11-05T03:36:26.911Z,91.75
2022-11-05T03:38:58.156Z,91.69
2022-11-05T03:41:27.337Z,91.52
2022-11-05T03:43:59.573Z,91.42
2022-11-05T03:46:31.420Z,91.28
2022-11-05T03:49:04.916Z,91.52
2022-11-05T03:51:43.516Z,91.85
2022-11-05T03:54:12.080Z,91.08
2022-11-05T03:56:47.625Z,90.89
2022-11-05T03:59:18.005Z,91.41
2022-11-05T04:01:46.700Z,91.32
2022-11-05T04:04:16.613Z,91.13
2022-11-05T04:07:02.459Z,91.31
2022-11-05T04:09:48.310Z,90.99
2022-11-05T04:12:34.207Z,90.74
2022-11-05T04:15:02.863Z,90.55
2022-11-05T04:17:30.334Z,90.86
2022-11-05T04:20:23.156Z,90.71
2022-11-05T04:23:19.655Z,90.18
2022-11-05T04:25:48.120Z,90.08
2022-11-05T04:28:16.666Z,89.85
2022-11-05T04:30:44.297Z,89.80
2022-11-05T04:33:15.306Z,90.06
2022-11-05T04:35:47.282Z,90.04
2022-11-05T04:38:17.234Z,90.18
2022-11-05T04:40:45.963Z,89.75
2022-11-05T04:43:16.788Z,90.24
2022-11-05T04:45:46.003Z,90.27
2022-11-05T04:48:14.646Z,90.98
2022-11-05T04:50:43.084Z,90.91
2022-11-05T04:53:13.216Z,90.67
2022-11-05T04:55:41.984Z,89.96
2022-11-05T04:58:10.627Z,90.44
2022-11-05T05:00:39.247Z,90.06
2022-11-05T05:03:07.886Z,90.02
2022-11-05T05:05:36.695Z,90.51
2022-11-05T05:08:06.457Z,90.25
2022-11-05T05:10:36.301Z,89.88
2022-11-05T05:13:04.776Z,90.57
2022-11-05T05:15:33.178Z,90.62
2022-11-05T05:18:01.576Z,90.69
2022-11-05T05:20:47.311Z,91.15
2022-11-05T05:23:15.771Z,90.59
2022-11-05T05:25:45.601Z,90.11
2022-11-05T05:28:14.038Z,90.25
2022-11-05T05:30:42.443Z,90.84
2022-11-05T05:33:11.187Z,91.23
2022-11-05T05:35:39.785Z,90.43
2022-11-05T05:38:08.186Z,91.15
2022-11-05T05:40:36.825Z,91.39
2022-11-05T05:43:06.561Z,91.61
2022-11-05T05:45:36.060Z,91.87
2022-11-05T05:48:04.741Z,90.92
2022-11-05T05:50:33.185Z,91.05
2022-11-05T05:53:09.023Z,90.58
2022-11-05T05:55:37.702Z,91.30
2022-11-05T05:58:07.531Z,90.71
2022-11-05T06:00:36.007Z,91.44
2022-11-05T06:03:06.251Z,91.62
2022-11-05T06:05:34.797Z,91.09
2022-11-05T06:08:04.456Z,91.18
2022-11-05T06:10:33.071Z,91.13
2022-11-05T06:13:01.520Z,91.63
2022-11-05T06:15:35.708Z,91.57
2022-11-05T06:18:04.696Z,91.79
2022-11-05T06:20:33.114Z,91.83
2022-11-05T06:23:01.662Z,91.62
2022-11-05T06:25:30.124Z,91.38
2022-11-05T06:27:58.629Z,91.43
2022-11-05T06:30:27.249Z,91.76
2022-11-05T06:32:57.019Z,92.12
2022-11-05T06:35:25.413Z,91.45
2022-11-05T06:37:53.801Z,91.28
2022-11-05T06:40:22.166Z,91.59
2022-11-05T06:42:53.017Z,91.43
2022-11-05T06:45:21.976Z,91.34
2022-11-05T06:47:57.875Z,91.68
2022-11-05T06:50:27.817Z,92.05
2022-11-05T06:52:56.490Z,91.78
2022-11-05T06:55:25.132Z,92.14
2022-11-05T06:57:53.653Z,91.97
2022-11-05T07:00:22.882Z,91.82
2022-11-05T07:02:51.317Z,92.26
2022-11-05T07:05:21.145Z,92.16
2022-11-05T07:07:49.514Z,91.73
2022-11-05T07:10:19.435Z,91.80
2022-11-05T07:12:47.848Z,92.20
2022-11-05T07:15:16.369Z,92.06
2022-11-05T07:17:44.848Z,91.78
2022-11-05T07:20:13.268Z,91.93
2022-11-05T07:22:43.160Z,91.70
2022-11-05T07:25:11.593Z,91.53
2022-11-05T07:27:40.886Z,92.25
2022-11-05T07:30:11.404Z,92.17
2022-11-05T07:32:40.535Z,91.24
2022-11-05T07:35:10.597Z,91.25
2022-11-05T07:37:48.318Z,91.96
2022-11-05T07:40:19.147Z,91.88
2022-11-05T07:42:49.570Z,91.55
2022-11-05T07:45:18.131Z,91.83
2022-11-05T07:47:48.609Z,91.75
2022-11-05T07:50:18.394Z,91.01
2022-11-05T07:52:49.078Z,90.99
2022-11-05T07:55:18.612Z,91.23
2022-11-05T07:57:48.798Z,91.90
2022-11-05T08:00:19.905Z,91.38
2022-11-05T08:03:05.597Z,90.54
2022-11-05T08:05:37.543Z,91.43
2022-11-05T08:08:07.806Z,90.97
2022-11-05T08:10:36.986Z,91.39
2022-11-05T08:13:06.607Z,91.30
2022-11-05T08:15:35.962Z,90.75
2022-11-05T08:18:06.481Z,91.34
2022-11-05T08:20:35.884Z,91.63
2022-11-05T08:23:04.297Z,91.25
2022-11-05T08:25:34.082Z,91.64
2022-11-05T08:28:04.128Z,90.59
2022-11-05T08:30:33.569Z,91.21
2022-11-05T08:33:04.735Z,91.09
2022-11-05T08:35:34.892Z,90.97
2022-11-05T08:38:05.376Z,91.39
2022-11-05T08:40:36.750Z,91.08
2022-11-05T08:43:07.660Z,89.16
2022-11-05T08:45:38.495Z,88.73
2022-11-05T08:48:09.223Z,86.40
2022-11-05T08:50:38.128Z,86.80
2022-11-05T08:53:07.330Z,87.54
2022-11-05T08:55:38.414Z,87.06
2022-11-05T08:58:08.623Z,86.70
2022-11-05T09:00:37.723Z,86.94
2022-11-05T09:03:09.344Z,86.17
2022-11-05T09:05:39.947Z,86.59
2022-11-05T09:08:10.317Z,86.42
2022-11-05T09:10:40.754Z,86.92
2022-11-05T09:13:14.690Z,85.91
2022-11-05T09:15:46.652Z,86.30
2022-11-05T09:18:15.466Z,85.89
2022-11-05T09:20:44.266Z,86.32
2022-11-05T09:23:14.750Z,86.31
2022-11-05T09:25:45.220Z,86.18
2022-11-05T09:28:17.091Z,85.47
2022-11-05T09:30:47.337Z,84.03
2022-11-05T09:33:16.107Z,82.96
2022-11-05T09:35:44.999Z,83.84
2022-11-05T09:38:13.532Z,83.50
2022-11-05T09:40:56.705Z,82.63
2022-11-05T09:43:31.891Z,84.21
2022-11-05T09:46:04.921Z,85.01
2022-11-05T09:48:35.010Z,84.14
2022-11-05T09:51:05.633Z,85.01
2022-11-05T09:53:42.100Z,85.29
2022-11-05T09:56:22.989Z,85.78
2022-11-05T09:58:57.464Z,85.91
2022-11-05T10:01:30.130Z,84.98
2022-11-05T10:04:02.662Z,86.01
2022-11-05T10:06:31.559Z,86.00
2022-11-05T10:09:06.810Z,87.38
2022-11-05T10:11:41.165Z,86.67
2022-11-05T10:14:17.768Z,85.43
2022-11-05T10:16:52.031Z,85.56
2022-11-05T10:19:25.032Z,86.13
2022-11-05T10:22:11.471Z,85.78
2022-11-05T10:24:43.564Z,87.15
2022-11-05T10:27:19.216Z,86.68
2022-11-05T10:29:49.138Z,85.54
2022-11-05T10:32:26.875Z,86.42
2022-11-05T10:34:58.400Z,86.96
2022-11-05T10:37:28.389Z,87.54
2022-11-05T10:39:57.078Z,86.24
2022-11-05T10:42:47.791Z,86.14
2022-11-05T10:45:26.527Z,84.98
2022-11-05T10:48:06.151Z,85.50
2022-11-05T10:50:35.104Z,86.04
2022-11-05T10:53:08.472Z,86.38
2022-11-05T10:55:39.408Z,86.25
2022-11-05T10:58:11.617Z,86.27
2022-11-05T11:00:40.516Z,86.61
2022-11-05T11:03:34.510Z,86.62
2022-11-05T11:06:07.599Z,86.71
2022-11-05T11:08:37.562Z,87.03
2022-11-05T11:11:07.562Z,87.30
2022-11-05T11:13:52.860Z,87.02
2022-11-05T11:16:23.197Z,86.49
2022-11-05T11:18:55.552Z,86.46
2022-11-05T11:21:24.930Z,87.00
2022-11-05T11:23:57.687Z,86.61
2022-11-05T11:26:29.240Z,86.75
2022-11-05T11:29:01.560Z,87.16
2022-11-05T11:31:32.512Z,87.14
2022-11-05T11:34:03.738Z,87.06
2022-11-05T11:36:39.549Z,87.27
2022-11-05T11:39:08.587Z,86.86
2022-11-05T11:41:41.851Z,87.06
2022-11-05T11:44:17.540Z,87.95
2022-11-05T11:46:49.607Z,87.13
2022-11-05T11:49:31.957Z,85.65
2022-11-05T11:52:04.594Z,86.24
2022-11-05T11:54:34.672Z,86.01
2022-11-05T11:57:03.820Z,84.88
2022-11-05T12:00:02.365Z,86.77
2022-11-05T12:02:56.005Z,86.34
2022-11-05T12:05:40.107Z,86.08
2022-11-05T12:08:23.715Z,86.58
2022-11-05T12:10:58.866Z,86.02
2022-11-05T12:13:52.618Z,87.12
2022-11-05T12:16:32.719Z,87.68
2022-11-05T12:19:11.690Z,86.31
2022-11-05T12:21:53.963Z,86.21
2022-11-05T12:24:47.585Z,86.09
2022-11-05T12:27:29.564Z,86.74
2022-11-05T12:30:03.472Z,86.11
2022-11-05T12:32:43.604Z,86.50
2022-11-05T12:35:45.783Z,86.64
2022-11-05T12:38:30.644Z,87.98
2022-11-05T12:41:10.640Z,86.41
2022-11-05T12:43:49.907Z,86.39
2022-11-05T12:46:28.813Z,86.44
2022-11-05T12:49:30.851Z,86.88
2022-11-05T12:52:16.975Z,86.20
2022-11-05T12:55:01.849Z,85.79
2022-11-05T12:57:33.061Z,86.60
2022-11-05T13:00:07.392Z,86.64
2022-11-05T13:02:41.881Z,85.28
2022-11-05T13:05:19.200Z,86.15
2022-11-05T13:07:54.784Z,85.51
2022-11-05T13:10:29.313Z,85.88
2022-11-05T13:13:04.724Z,85.42
2022-11-05T13:15:36.927Z,84.44
2022-11-05T13:18:10.690Z,85.40
2022-11-05T13:20:45.739Z,84.80
2022-11-05T13:23:18.744Z,85.08
2022-11-05T13:25:52.432Z,84.06
2022-11-05T13:28:32.886Z,82.50
2022-11-05T13:31:05.323Z,83.51
2022-11-05T13:33:39.114Z,83.56
2022-11-05T13:36:31.768Z,81.59
2022-11-05T13:39:09.109Z,81.98
2022-11-05T13:41:51.060Z,81.82
2022-11-05T13:44:43.068Z,83.21
2022-11-05T13:47:30.079Z,82.89
2022-11-05T13:50:26.324Z,82.49
2022-11-05T13:53:24.243Z,83.29
2022-11-05T13:56:00.808Z,83.12
2022-11-05T13:58:47.939Z,83.92
2022-11-05T14:01:30.226Z,83.16
2022-11-05T14:03:58.620Z,82.60
2022-11-05T14:06:30.046Z,82.81
2022-11-05T14:09:02.704Z,83.31
2022-11-05T14:11:34.551Z,82.92
2022-11-05T14:14:05.631Z,82.07
2022-11-05T14:16:50.686Z,82.13
2022-11-05T14:19:33.376Z,83.07
2022-11-05T14:22:38.720Z,82.37
2022-11-05T14:25:43.445Z,82.68
2022-11-05T14:28:43.154Z,83.41
2022-11-05T14:32:02.507Z,83.11
2022-11-05T14:34:21.983Z,82.31
2022-11-05T14:37:30.284Z,81.65
2022-11-05T14:40:24.227Z,82.72
2022-11-05T14:42:55.295Z,82.55
2022-11-05T14:45:29.617Z,82.45
2022-11-05T14:48:00.112Z,82.91
2022-11-05T14:50:34.565Z,83.55
2022-11-05T14:53:11.465Z,82.85
2022-11-05T14:55:42.398Z,84.15
2022-11-05T14:58:33.120Z,82.38
2022-11-05T15:01:05.319Z,83.88
2022-11-05T15:03:47.461Z,83.17
2022-11-05T15:06:26.088Z,82.80
2022-11-05T15:09:21.570Z,83.02
2022-11-05T15:12:00.446Z,83.06
2022-11-05T15:14:33.517Z,82.78
2022-11-05T15:17:14.655Z,83.36
2022-11-05T15:19:43.954Z,83.59
2022-11-05T15:22:25.874Z,83.37
2022-11-05T15:24:54.486Z,83.98
2022-11-05T15:27:43.971Z,83.91
2022-11-05T15:30:16.814Z,84.11
2022-11-05T15:32:46.798Z,84.28
2022-11-05T15:35:21.325Z,84.46
2022-11-05T15:37:54.800Z,84.82
2022-11-05T15:40:29.557Z,84.45
2022-11-05T15:43:25.110Z,85.16
2022-11-05T15:46:05.839Z,84.98
2022-11-05T15:48:37.021Z,85.11
2022-11-05T15:51:05.869Z,85.18
2022-11-05T15:54:08.210Z,85.22
2022-11-05T15:56:30.846Z,85.89
2022-11-05T15:59:01.584Z,85.35
2022-11-05T16:01:32.223Z,85.30
2022-11-05T16:04:11.673Z,86.32
2022-11-05T16:06:42.871Z,85.70
2022-11-05T16:09:22.158Z,86.37
2022-11-05T16:12:12.109Z,86.56
2022-11-05T16:14:41.409Z,86.40
2022-11-05T16:17:20.639Z,86.83
2022-11-05T16:19:51.784Z,87.00
2022-11-05T16:22:20.893Z,86.76
2022-11-05T16:24:50.050Z,87.29
2022-11-05T16:27:20.559Z,87.53
2022-11-05T16:29:52.560Z,87.83
2022-11-05T16:32:30.234Z,87.44
2022-11-05T16:35:03.838Z,87.74
2022-11-05T16:37:39.671Z,88.01
2022-11-05T16:40:15.077Z,87.53
2022-11-05T16:42:43.736Z,87.09
2022-11-05T16:45:14.761Z,87.58
2022-11-05T16:47:44.966Z,87.97
2022-11-05T16:50:22.027Z,88.15
2022-11-05T16:52:51.107Z,88.15
2022-11-05T16:55:20.130Z,88.01
2022-11-05T16:57:51.791Z,87.97
2022-11-05T17:00:22.244Z,87.99
2022-11-05T17:02:51.303Z,88.04
2022-11-05T17:05:24.757Z,87.88
2022-11-05T17:07:53.822Z,88.23
2022-11-05T17:10:24.330Z,87.67
2022-11-05T17:12:53.150Z,87.33
2022-11-05T17:15:24.886Z,88.56
2022-11-05T17:17:54.583Z,88.08
2022-11-05T17:20:40.317Z,88.23
2022-11-05T17:23:11.898Z,87.93
2022-11-05T17:25:41.562Z,87.77
2022-11-05T17:28:11.115Z,88.95
2022-11-05T17:30:41.627Z,88.65
2022-11-05T17:33:12.103Z,88.57
2022-11-05T17:35:43.113Z,88.71
2022-11-05T17:38:12.012Z,88.01
2022-11-05T17:40:41.463Z,87.93
2022-11-05T17:43:10.833Z,88.36
2022-11-05T17:45:43.863Z,87.52
2022-11-05T17:48:12.600Z,87.54
2022-11-05T17:50:43.466Z,87.54
2022-11-05T17:53:13.062Z,87.05
2022-11-05T17:55:42.684Z,87.54
2022-11-05T17:58:11.385Z,87.08
2022-11-05T18:00:41.048Z,88.28
2022-11-05T18:03:11.204Z,87.95
2022-11-05T18:05:42.581Z,87.39
2022-11-05T18:08:12.425Z,87.65
2022-11-05T18:10:42.080Z,87.02
2022-11-05T18:13:11.463Z,87.47
2022-11-05T18:15:41.190Z,87.86
2022-11-05T18:18:10.129Z,87.49
2022-11-05T18:20:38.980Z,88.70
2022-11-05T18:23:08.973Z,86.67
2022-11-05T18:25:37.565Z,87.62
2022-11-05T18:28:06.029Z,87.82
2022-11-05T18:30:35.199Z,87.73
2022-11-05T18:33:03.714Z,89.04
2022-11-05T18:35:32.310Z,88.96
2022-11-05T18:38:00.731Z,88.19
2022-11-05T18:40:30.517Z,88.79
2022-11-05T18:42:58.959Z,89.92
2022-11-05T18:45:29.907Z,89.46
2022-11-05T18:48:00.251Z,88.63
2022-11-05T18:50:28.769Z,88.86
2022-11-05T18:52:57.420Z,88.79
2022-11-05T18:55:26.003Z,88.57
2022-11-05T18:57:55.823Z,88.40
2022-11-05T19:00:24.336Z,88.87
2022-11-05T19:02:53.015Z,88.41
2022-11-05T19:05:29.152Z,89.30
2022-11-05T19:07:58.386Z,88.96
2022-11-05T19:10:27.449Z,90.03
2022-11-05T19:12:57.284Z,90.19
2022-11-05T19:15:25.803Z,89.68
2022-11-05T19:17:54.199Z,89.65
2022-11-05T19:20:22.730Z,89.07
2022-11-05T19:22:51.171Z,89.21
2022-11-05T19:25:19.749Z,89.33
2022-11-05T19:27:48.462Z,89.69
2022-11-05T19:30:18.515Z,89.17
2022-11-05T19:32:49.697Z,90.02
2022-11-05T19:35:18.604Z,90.02
2022-11-05T19:37:47.045Z,90.39
2022-11-05T19:40:15.433Z,90.35
2022-11-05T19:42:43.850Z,90.19
2022-11-05T19:45:38.390Z,89.48
2022-11-05T19:48:02.303Z,90.57
2022-11-05T19:50:31.664Z,90.45
2022-11-05T19:53:00.159Z,90.58
2022-11-05T19:55:28.632Z,90.13
2022-11-05T19:57:57.039Z,90.35
2022-11-05T20:00:25.533Z,91.00
2022-11-05T20:02:54.260Z,90.80
2022-11-05T20:05:25.112Z,89.31
2022-11-05T20:07:53.508Z,90.56
2022-11-05T20:10:23.336Z,90.46
2022-11-05T20:12:54.183Z,90.91
2022-11-05T20:15:22.756Z,91.35
2022-11-05T20:17:52.257Z,91.59
2022-11-05T20:20:24.883Z,92.42
2022-11-05T20:22:59.198Z,92.53
2022-11-05T20:25:27.667Z,92.33
2022-11-05T20:27:57.735Z,91.52
2022-11-05T20:30:28.370Z,91.32
2022-11-05T20:32:56.966Z,91.21
2022-11-05T20:35:26.727Z,90.29
2022-11-05T20:37:55.121Z,90.44
2022-11-05T20:40:23.512Z,90.46
2022-11-05T20:42:51.983Z,90.13
2022-11-05T20:45:20.409Z,89.41
2022-11-05T20:47:48.842Z,90.54
2022-11-05T20:50:17.456Z,90.04
2022-11-05T20:52:47.232Z,89.96
2022-11-05T20:55:15.906Z,89.18
2022-11-05T20:57:44.449Z,89.60
2022-11-05T21:00:16.573Z,89.59
2022-11-05T21:02:47.325Z,89.79
2022-11-05T21:05:15.824Z,90.82
2022-11-05T21:07:47.942Z,90.41
2022-11-05T21:10:16.538Z,89.92
2022-11-05T21:12:45.722Z,91.01
2022-11-05T21:15:14.907Z,90.76
2022-11-05T21:17:44.814Z,90.84
2022-11-05T21:20:15.306Z,91.20
2022-11-05T21:22:45.322Z,90.62
2022-11-05T21:25:15.338Z,89.93
2022-11-05T21:27:44.547Z,90.50
2022-11-05T21:30:13.695Z,90.82
2022-11-05T21:32:44.155Z,90.33
2022-11-05T21:35:12.624Z,90.11
2022-11-05T21:37:41.024Z,90.47
2022-11-05T21:40:10.872Z,91.20
2022-11-05T21:42:40.644Z,90.51
2022-11-05T21:45:09.676Z,90.58
2022-11-05T21:47:41.061Z,89.82
2022-11-05T21:50:16.104Z,90.71
2022-11-05T21:53:13.977Z,90.79
2022-11-05T21:56:00.033Z,90.40
2022-11-05T21:58:47.448Z,90.61
2022-11-05T22:01:15.835Z,90.34
2022-11-05T22:03:44.238Z,90.14
2022-11-05T22:06:12.639Z,90.19
2022-11-05T22:08:41.100Z,90.44
2022-11-05T22:11:09.498Z,90.57
2022-11-05T22:13:40.460Z,90.40
2022-11-05T22:16:09.886Z,90.76
2022-11-05T22:18:40.035Z,91.44
2022-11-05T22:21:15.816Z,90.90
2022-11-05T22:23:44.215Z,90.88
2022-11-05T22:26:12.663Z,90.37
2022-11-05T22:28:42.421Z,90.44
2022-11-05T22:31:13.365Z,90.74
2022-11-05T22:33:42.122Z,90.52
2022-11-05T22:36:11.785Z,90.93
2022-11-05T22:38:40.847Z,91.07
2022-11-05T22:41:13.913Z,91.11
2022-11-05T22:43:46.311Z,91.08
2022-11-05T22:46:17.404Z,90.44
2022-11-05T22:48:46.528Z,90.76
2022-11-05T22:51:16.786Z,90.78
2022-11-05T22:53:45.312Z,90.95
2022-11-05T22:56:16.418Z,91.47
2022-11-05T22:58:52.546Z,91.08
2022-11-05T23:01:22.121Z,91.03
2022-11-05T23:03:52.840Z,90.86
2022-11-05T23:06:43.352Z,91.21
2022-11-05T23:09:33.044Z,91.54
2022-11-05T23:12:06.281Z,91.82
2022-11-05T23:14:37.637Z,91.52
2022-11-05T23:17:23.924Z,91.68
2022-11-05T23:20:24.370Z,91.75
2022-11-05T23:23:10.865Z,92.04
2022-11-05T23:25:39.336Z,91.92
2022-11-05T23:28:10.173Z,91.66
2022-11-05T23:31:05.024Z,92.11
2022-11-05T23:33:34.834Z,91.53
2022-11-05T23:36:17.492Z,91.54
2022-11-05T23:38:46.193Z,91.63
2022-11-05T23:41:31.981Z,91.75
2022-11-05T23:44:17.955Z,91.41
2022-11-05T23:47:05.412Z,91.29
2022-11-05T23:49:33.904Z,91.59
2022-11-05T23:52:02.351Z,91.34
2022-11-05T23:54:30.771Z,91.43
2022-11-05T23:56:59.189Z,91.53
2022-11-05T23:59:27.631Z,91.17
